Time;durP1;ratioP1;P1;durP2;ratioP2;P2;SDS_P1;SDS_P2;PMS_P1;PMS_P2;Temp;Humidity;BMP_temperature;BMP_pressure;BME280_temperature;BME280_humidity;BME280_pressure;Samples;Min_cycle;Max_cycle;Signal;HPM_P1;HPM_P2
2023/08/10 00:00:30;;;;;;;1.80;0.50;;;;;;;13.36;100.00;99889.38;104296;1263;74014;-49
2023/08/10 00:02:58;;;;;;;2.70;0.50;;;;;;;13.37;100.00;99884.59;104213;1258;67615;-50
2023/08/10 00:05:25;;;;;;;0.80;0.50;;;;;;;13.37;100.00;99886.73;106943;1260;71475;-49
2023/08/10 00:07:53;;;;;;;0.90;0.60;;;;;;;13.35;100.00;99887.63;104071;1263;59739;-49
2023/08/10 00:10:20;;;;;;;3.00;0.70;;;;;;;13.33;100.00;99888.61;104137;1257;60340;-48
2023/08/10 00:12:48;;;;;;;5.60;1.00;;;;;;;13.33;100.00;99892.23;104189;1257;71837;-47
2023/08/10 00:15:15;;;;;;;0.60;0.50;;;;;;;13.35;100.00;99891.75;103810;1257;67568;-49
2023/08/10 00:17:43;;;;;;;4.00;0.50;;;;;;;13.35;100.00;99894.64;104135;1262;73137;-50
2023/08/10 00:20:11;;;;;;;0.50;0.40;;;;;;;13.32;100.00;99896.96;104422;1258;60470;-49
2023/08/10 00:22:38;;;;;;;2.10;0.60;;;;;;;13.24;100.00;99893.98;104348;1265;59937;-46
2023/08/10 00:25:07;;;;;;;2.40;0.40;;;;;;;13.19;100.00;99893.05;104188;1260;73104;-50
2023/08/10 00:27:35;;;;;;;1.00;1.00;;;;;;;13.17;100.00;99892.41;104348;1258;67949;-48
2023/08/10 00:30:03;;;;;;;0.50;0.40;;;;;;;13.16;100.00;99896.07;104353;1263;70983;-50
2023/08/10 00:32:31;;;;;;;7.20;0.60;;;;;;;13.13;100.00;99898.21;104181;1260;60474;-46
2023/08/10 00:34:59;;;;;;;1.30;0.40;;;;;;;13.07;100.00;99896.36;108524;1260;58796;-48
2023/08/10 00:37:26;;;;;;;0.50;0.40;;;;;;;13.06;100.00;99898.98;104602;1258;74312;-48
2023/08/10 00:39:54;;;;;;;1.00;0.40;;;;;;;13.06;100.00;99895.35;104134;1258;68026;-49
2023/08/10 00:42:21;;;;;;;1.60;0.40;;;;;;;13.08;100.00;99892.38;104196;1261;71890;-48
2023/08/10 00:44:49;;;;;;;2.80;0.70;;;;;;;13.09;100.00;99891.75;105950;1259;62997;-50
2023/08/10 00:47:16;;;;;;;1.40;0.60;;;;;;;13.08;100.00;99892.38;104311;1258;61723;-50
2023/08/10 00:49:44;;;;;;;3.00;0.50;;;;;;;13.07;100.00;99897.29;104171;1257;72065;-51
2023/08/10 00:52:11;;;;;;;1.10;0.50;;;;;;;13.06;100.00;99896.79;104226;1257;65631;-49
2023/08/10 00:54:38;;;;;;;2.70;0.50;;;;;;;13.06;100.00;99898.40;104154;1257;73442;-48
2023/08/10 00:57:06;;;;;;;1.50;0.50;;;;;;;13.07;100.00;99900.36;103957;1260;60542;-48
2023/08/10 00:59:33;;;;;;;1.60;0.60;;;;;;;13.04;100.00;99899.23;104083;1265;59677;-48
2023/08/10 01:02:00;;;;;;;0.70;0.50;;;;;;;13.02;100.00;99901.67;104215;1260;72496;-48
2023/08/10 01:04:28;;;;;;;1.50;0.40;;;;;;;13.02;100.00;99905.29;108500;1257;66488;-48
2023/08/10 01:07:02;;;;;;;0.70;0.40;;;;;;;13.01;100.00;99907.55;108744;1257;71391;-49
2023/08/10 01:09:44;;;;;;;0.80;0.40;;;;;;;12.98;100.00;99910.94;108658;1257;61645;-49
2023/08/10 01:12:33;;;;;;;0.70;0.40;;;;;;;12.95;100.00;99912.88;108662;1257;59398;-49
2023/08/10 01:15:19;;;;;;;3.40;0.50;;;;;;;12.96;100.00;99913.17;108734;1257;71359;-51
2023/08/10 01:17:50;;;;;;;1.50;0.60;;;;;;;12.98;100.00;99916.15;108760;1263;68029;-49
2023/08/10 01:20:21;;;;;;;0.60;0.50;;;;;;;13.00;100.00;99918.23;108627;1257;71406;-50
2023/08/10 01:23:14;;;;;;;0.50;0.50;;;;;;;13.03;100.00;99921.80;108607;1264;60524;-51
2023/08/10 01:25:42;;;;;;;2.20;0.50;;;;;;;13.06;100.00;99923.44;108763;1259;60003;-50
2023/08/10 01:28:10;;;;;;;1.20;0.60;;;;;;;13.08;100.00;99924.99;107505;1264;73087;-48
2023/08/10 01:30:38;;;;;;;0.70;0.50;;;;;;;13.07;100.00;99927.39;104378;1257;67622;-48
2023/08/10 01:33:05;;;;;;;1.00;0.30;;;;;;;13.05;100.00;99922.42;106298;1262;71383;-47
2023/08/10 01:35:32;;;;;;;0.50;0.40;;;;;;;13.04;100.00;99927.87;104257;1261;60492;-49
2023/08/10 01:38:00;;;;;;;0.60;0.50;;;;;;;13.03;100.00;99924.91;104267;1258;60111;-48
2023/08/10 01:40:27;;;;;;;0.70;0.50;;;;;;;13.00;100.00;99929.58;104113;1257;71784;-49
2023/08/10 01:42:54;;;;;;;0.90;0.50;;;;;;;13.00;100.00;99926.52;104197;1257;68183;-48
2023/08/10 01:45:22;;;;;;;0.90;0.50;;;;;;;13.01;100.00;99927.56;104276;1256;76593;-48
2023/08/10 01:47:57;;;;;;;0.90;0.50;;;;;;;13.01;100.00;99928.40;104198;1263;60410;-49
2023/08/10 01:50:25;;;;;;;0.40;0.40;;;;;;;13.02;100.00;99933.06;104171;1257;60290;-48
2023/08/10 01:52:55;;;;;;;0.60;0.50;;;;;;;13.01;100.00;99934.04;104161;1265;71768;-49
2023/08/10 01:55:22;;;;;;;2.50;0.50;;;;;;;12.98;100.00;99934.00;106393;1257;67879;-49
2023/08/10 01:57:49;;;;;;;3.30;0.50;;;;;;;12.97;100.00;99932.10;104400;1263;72582;-50
2023/08/10 02:00:17;;;;;;;3.10;0.70;;;;;;;12.94;100.00;99933.11;104786;1263;60063;-48
2023/08/10 02:02:46;;;;;;;0.70;0.50;;;;;;;12.91;100.00;99936.75;106630;1257;59953;-49
2023/08/10 02:05:14;;;;;;;1.50;0.50;;;;;;;12.90;100.00;99940.76;104338;1258;71837;-49
2023/08/10 02:07:42;;;;;;;2.50;0.80;;;;;;;12.87;100.00;99938.17;103986;1257;67505;-49
2023/08/10 02:10:09;;;;;;;0.90;0.50;;;;;;;12.84;100.00;99941.23;104000;1258;72690;-50
2023/08/10 02:12:37;;;;;;;1.10;0.50;;;;;;;12.83;100.00;99939.15;104132;1261;62572;-49
2023/08/10 02:15:05;;;;;;;0.80;0.40;;;;;;;12.82;100.00;99935.77;103754;1259;60468;-49
2023/08/10 02:17:35;;;;;;;0.80;0.40;;;;;;;12.79;100.00;99937.20;104221;1260;71838;-49
2023/08/10 02:20:11;;;;;;;2.30;0.50;;;;;;;12.76;100.00;99935.36;105161;1265;66417;-48
2023/08/10 02:22:45;;;;;;;0.80;0.60;;;;;;;12.77;100.00;99939.09;105412;1257;70497;-47
2023/08/10 02:25:13;;;;;;;0.90;0.50;;;;;;;12.81;100.00;99947.17;104303;1258;61323;-49
2023/08/10 02:27:41;;;;;;;0.60;0.40;;;;;;;12.84;100.00;99947.90;104511;1259;59869;-49
2023/08/10 02:30:09;;;;;;;1.40;0.50;;;;;;;12.85;100.00;99950.70;104513;1261;74742;-48
2023/08/10 02:32:37;;;;;;;2.20;0.60;;;;;;;12.86;100.00;99952.46;104758;1262;67571;-48
2023/08/10 02:35:05;;;;;;;1.20;0.70;;;;;;;12.84;100.00;99952.44;104584;1260;71498;-46
2023/08/10 02:37:33;;;;;;;1.30;0.60;;;;;;;12.80;100.00;99955.51;104785;1261;60498;-49
2023/08/10 02:40:03;;;;;;;0.60;0.50;;;;;;;12.77;100.00;99956.00;104387;1262;60400;-48
2023/08/10 02:42:31;;;;;;;0.90;0.40;;;;;;;12.77;100.00;99963.05;104359;1258;72667;-49
2023/08/10 02:44:58;;;;;;;4.10;0.50;;;;;;;12.76;100.00;99960.92;104389;1262;69573;-48
2023/08/10 02:47:26;;;;;;;1.30;0.50;;;;;;;12.72;100.00;99960.11;104044;1257;73330;-49
2023/08/10 02:49:54;;;;;;;2.90;0.70;;;;;;;12.64;100.00;99965.40;104014;1260;60559;-49
2023/08/10 02:52:21;;;;;;;1.20;0.90;;;;;;;12.58;100.00;99970.77;104296;1260;60438;-49
2023/08/10 02:54:48;;;;;;;1.30;1.10;;;;;;;12.56;100.00;99967.83;104035;1260;73821;-50
2023/08/10 02:57:16;;;;;;;1.60;1.30;;;;;;;12.58;100.00;99973.44;104084;1261;67561;-50
2023/08/10 02:59:43;;;;;;;2.40;1.80;;;;;;;12.62;100.00;99970.38;104325;1260;72717;-50
2023/08/10 03:02:11;;;;;;;1.60;1.50;;;;;;;12.66;100.00;99974.28;104223;1260;63917;-50
2023/08/10 03:04:38;;;;;;;2.50;1.80;;;;;;;12.71;100.00;99975.46;105045;1260;60529;-48
2023/08/10 03:07:06;;;;;;;2.60;1.40;;;;;;;12.73;100.00;99973.54;105025;1263;72620;-48
2023/08/10 03:09:33;;;;;;;2.80;2.20;;;;;;;12.74;100.00;99979.27;104622;1264;66286;-49
2023/08/10 03:12:00;;;;;;;2.70;2.60;;;;;;;12.77;100.00;99981.58;104499;1260;72660;-47
2023/08/10 03:14:29;;;;;;;5.60;3.80;;;;;;;12.81;100.00;99984.98;105558;1261;60609;-49
2023/08/10 03:16:56;;;;;;;5.40;5.00;;;;;;;12.85;100.00;99988.70;104531;1265;60489;-49
2023/08/10 03:19:24;;;;;;;5.20;4.70;;;;;;;12.89;100.00;99985.64;104691;1258;75518;-48
2023/08/10 03:21:51;;;;;;;4.00;3.10;;;;;;;12.90;100.00;99986.67;104932;1260;67538;-47
2023/08/10 03:24:18;;;;;;;3.60;3.40;;;;;;;12.90;100.00;99988.84;104546;1258;72674;-49
2023/08/10 03:26:46;;;;;;;3.60;3.30;;;;;;;12.92;100.00;99987.86;104666;1258;61967;-48
2023/08/10 03:29:13;;;;;;;3.60;3.30;;;;;;;12.95;100.00;99983.69;104775;1262;60721;-48
2023/08/10 03:31:41;;;;;;;3.30;3.10;;;;;;;12.97;100.00;99984.48;104528;1258;72507;-47
2023/08/10 03:34:09;;;;;;;2.80;2.40;;;;;;;13.00;100.00;99988.50;104706;1265;66312;-49
2023/08/10 03:36:37;;;;;;;1.30;1.20;;;;;;;13.04;100.00;99988.05;104591;1265;71614;-48
2023/08/10 03:39:05;;;;;;;3.00;1.10;;;;;;;13.11;100.00;99990.05;104657;1260;60635;-50
2023/08/10 03:41:33;;;;;;;1.00;0.70;;;;;;;13.19;100.00;99989.44;108787;1258;60499;-50
2023/08/10 03:44:01;;;;;;;1.80;0.60;;;;;;;13.27;100.00;99987.36;105695;1263;72594;-49
2023/08/10 03:46:28;;;;;;;1.20;0.60;;;;;;;13.35;100.00;99992.48;104257;1263;68143;-50
2023/08/10 03:48:55;;;;;;;1.90;0.90;;;;;;;13.44;100.00;99994.16;104604;1265;73321;-50
2023/08/10 03:51:24;;;;;;;1.90;0.80;;;;;;;13.53;100.00;99998.35;105272;1262;61658;-47
2023/08/10 03:53:51;;;;;;;1.40;0.60;;;;;;;13.61;100.00;100002.73;104696;1260;60778;-49
2023/08/10 03:56:21;;;;;;;3.30;0.70;;;;;;;13.71;100.00;100003.27;108787;1260;72606;-50
2023/08/10 03:58:48;;;;;;;3.40;0.80;;;;;;;13.80;100.00;100003.80;108696;1258;67893;-51
2023/08/10 04:01:16;;;;;;;2.30;0.80;;;;;;;13.90;100.00;100005.23;105889;1262;71676;-48
2023/08/10 04:03:43;;;;;;;4.40;0.80;;;;;;;14.00;100.00;100004.46;104581;1260;61255;-49
2023/08/10 04:06:11;;;;;;;1.50;0.90;;;;;;;14.10;100.00;100004.58;104615;1258;60620;-47
2023/08/10 04:08:38;;;;;;;1.20;0.90;;;;;;;14.21;100.00;100003.56;104385;1260;73864;-47
2023/08/10 04:11:06;;;;;;;1.50;0.80;;;;;;;14.33;100.00;100003.77;104565;1263;66808;-49
2023/08/10 04:13:33;;;;;;;3.30;0.70;;;;;;;14.45;100.00;100004.86;104424;1263;71369;-50
2023/08/10 04:16:01;;;;;;;2.20;0.70;;;;;;;14.57;100.00;100011.70;104391;1262;62347;-50
2023/08/10 04:18:28;;;;;;;1.10;0.80;;;;;;;14.70;100.00;100013.13;104491;1263;60630;-49
2023/08/10 04:20:56;;;;;;;1.30;1.00;;;;;;;14.82;100.00;100018.17;104917;1254;72636;-50
2023/08/10 04:23:23;;;;;;;6.80;1.20;;;;;;;14.94;100.00;100017.04;104982;1254;66444;-47
2023/08/10 04:25:50;;;;;;;3.00;0.90;;;;;;;15.07;100.00;100018.16;104856;1260;75896;-49
2023/08/10 04:28:17;;;;;;;1.70;0.90;;;;;;;15.23;100.00;100019.52;104789;1254;64391;-50
2023/08/10 04:30:45;;;;;;;1.20;0.90;;;;;;;15.43;100.00;100024.96;104883;1255;59944;-48
2023/08/10 04:33:13;;;;;;;1.10;0.90;;;;;;;15.61;100.00;100026.35;104584;1260;72573;-50
2023/08/10 04:35:40;;;;;;;3.10;0.90;;;;;;;15.80;100.00;100032.54;104783;1259;66311;-48
2023/08/10 04:38:07;;;;;;;1.00;0.80;;;;;;;15.97;100.00;100033.20;104789;1258;71376;-49
2023/08/10 04:40:35;;;;;;;2.20;1.10;;;;;;;16.16;100.00;100040.67;104893;1260;61749;-50
2023/08/10 04:43:03;;;;;;;1.30;0.80;;;;;;;16.34;100.00;100049.20;104847;1254;60524;-50
2023/08/10 04:45:30;;;;;;;2.30;1.00;;;;;;;16.51;100.00;100050.58;104749;1259;74550;-50
2023/08/10 04:47:58;;;;;;;1.40;1.10;;;;;;;16.68;100.00;100055.96;105077;1254;67810;-49
2023/08/10 04:50:25;;;;;;;1.40;0.80;;;;;;;16.86;100.00;100057.46;105463;1260;72670;-48
2023/08/10 04:52:53;;;;;;;1.00;0.80;;;;;;;17.01;100.00;100063.59;104799;1255;61676;-48
2023/08/10 04:55:20;;;;;;;1.60;0.70;;;;;;;17.16;100.00;100062.40;104946;1268;60460;-49
2023/08/10 04:57:48;;;;;;;1.40;0.90;;;;;;;17.29;100.00;100065.06;104999;1258;74354;-47
2023/08/10 05:00:16;;;;;;;2.00;0.90;;;;;;;17.42;100.00;100067.05;105058;1260;64637;-50
2023/08/10 05:02:43;;;;;;;2.90;0.90;;;;;;;17.56;100.00;100071.52;104901;1266;70359;-49
2023/08/10 05:05:11;;;;;;;2.30;0.80;;;;;;;17.68;100.00;100079.36;104891;1254;60543;-49
2023/08/10 05:07:38;;;;;;;1.40;0.70;;;;;;;17.79;100.00;100079.97;105314;1259;60508;-50
2023/08/10 05:10:07;;;;;;;0.80;0.70;;;;;;;17.90;100.00;100083.59;104485;1259;73077;-50
2023/08/10 05:12:35;;;;;;;1.10;0.70;;;;;;;17.99;100.00;100088.73;104758;1255;66133;-49
2023/08/10 05:15:04;;;;;;;1.40;0.90;;;;;;;18.07;100.00;100091.50;105073;1260;72898;-48
2023/08/10 05:17:31;;;;;;;4.80;0.50;;;;;;;18.15;100.00;100096.01;105121;1259;62145;-51
2023/08/10 05:19:58;;;;;;;6.40;0.80;;;;;;;18.23;100.00;100102.34;105029;1259;60559;-49
2023/08/10 05:22:26;;;;;;;6.70;0.70;;;;;;;18.31;100.00;100099.92;104751;1254;72075;-49
2023/08/10 05:24:53;;;;;;;1.60;0.70;;;;;;;18.40;100.00;100102.93;104931;1260;66625;-50
2023/08/10 05:27:21;;;;;;;1.90;0.70;;;;;;;18.47;100.00;100108.70;104736;1255;72656;-48
2023/08/10 05:29:48;;;;;;;1.50;0.80;;;;;;;18.56;100.00;100113.35;104854;1262;60747;-50
2023/08/10 05:32:15;;;;;;;1.30;0.80;;;;;;;18.65;100.00;100116.31;104790;1260;60601;-50
2023/08/10 05:34:45;;;;;;;2.40;0.70;;;;;;;18.71;100.00;100121.83;104888;1254;72655;-49
2023/08/10 05:37:13;;;;;;;1.10;0.60;;;;;;;18.76;100.00;100124.92;104792;1255;67897;-50
2023/08/10 05:39:40;;;;;;;1.40;0.70;;;;;;;18.79;100.00;100124.84;104876;1262;73102;-48
2023/08/10 05:42:07;;;;;;;0.70;0.50;;;;;;;18.82;100.00;100125.66;104768;1260;60453;-48
2023/08/10 05:44:35;;;;;;;2.10;0.60;;;;;;;18.84;100.00;100126.80;104876;1260;60510;-48
2023/08/10 05:47:02;;;;;;;0.90;0.60;;;;;;;18.85;100.00;100127.24;104978;1254;73910;-49
2023/08/10 05:49:30;;;;;;;1.30;0.60;;;;;;;18.87;100.00;100126.96;104928;1259;67193;-50
2023/08/10 05:51:57;;;;;;;2.50;0.60;;;;;;;18.89;100.00;100130.96;104851;1260;72666;-48
2023/08/10 05:54:24;;;;;;;0.80;0.50;;;;;;;18.93;100.00;100131.79;104699;1258;60545;-50
2023/08/10 05:56:52;;;;;;;2.20;1.10;;;;;;;18.98;100.00;100134.08;104900;1257;60552;-50
2023/08/10 05:59:19;;;;;;;2.50;0.40;;;;;;;19.02;100.00;100136.15;104772;1258;72923;-49
2023/08/10 06:01:47;;;;;;;4.30;0.50;;;;;;;19.08;100.00;100140.40;104726;1264;67574;-48
2023/08/10 06:04:15;;;;;;;0.80;0.50;;;;;;;19.14;100.00;100138.64;104768;1259;73183;-49
2023/08/10 06:06:42;;;;;;;1.30;0.60;;;;;;;19.21;100.00;100150.10;104652;1258;60513;-48
2023/08/10 06:09:12;;;;;;;1.70;0.50;;;;;;;19.30;100.00;100153.43;104691;1257;60576;-49
2023/08/10 06:11:40;;;;;;;0.50;0.40;;;;;;;19.38;100.00;100151.57;104947;1254;73923;-48
2023/08/10 06:14:15;;;;;;;1.10;0.50;;;;;;;19.44;100.00;100153.42;104874;1263;66785;-50
2023/08/10 06:16:42;;;;;;;0.80;0.50;;;;;;;19.50;100.00;100152.45;104682;1260;72347;-50
2023/08/10 06:19:09;;;;;;;9.00;0.50;;;;;;;19.56;100.00;100156.67;104960;1255;60611;-52
2023/08/10 06:21:37;;;;;;;1.60;0.50;;;;;;;19.63;100.00;100153.73;104984;1254;60623;-49
2023/08/10 06:24:08;;;;;;;0.80;0.50;;;;;;;19.70;100.00;100155.77;104697;1259;73127;-48
2023/08/10 06:26:36;;;;;;;2.50;0.40;;;;;;;19.76;100.00;100156.39;104959;1257;66672;-49
2023/08/10 06:29:04;;;;;;;0.50;0.50;;;;;;;19.82;100.00;100159.55;104863;1258;71175;-50
2023/08/10 06:31:31;;;;;;;5.90;0.60;;;;;;;19.89;100.00;100158.44;104631;1254;60565;-51
2023/08/10 06:33:59;;;;;;;1.10;0.40;;;;;;;19.95;100.00;100160.11;104863;1259;60623;-49
2023/08/10 06:36:27;;;;;;;2.80;0.50;;;;;;;19.99;100.00;100164.10;104819;1254;72451;-49
2023/08/10 06:38:54;;;;;;;1.40;0.60;;;;;;;20.06;100.00;100164.02;108969;1254;66878;-51
2023/08/10 06:41:22;;;;;;;0.50;0.40;;;;;;;20.12;100.00;100168.76;104969;1258;73125;-50
2023/08/10 06:43:49;;;;;;;2.50;0.50;;;;;;;20.20;100.00;100171.72;104828;1253;60566;-49
2023/08/10 06:46:17;;;;;;;0.60;0.50;;;;;;;20.29;100.00;100172.27;104946;1255;60482;-51
2023/08/10 06:48:44;;;;;;;0.80;0.40;;;;;;;20.37;100.00;100172.15;105008;1254;73864;-49
2023/08/10 06:51:12;;;;;;;4.60;0.50;;;;;;;20.46;100.00;100173.61;104999;1255;67533;-50
2023/08/10 06:53:39;;;;;;;0.60;0.40;;;;;;;20.52;100.00;100175.30;104891;1260;72227;-51
2023/08/10 06:56:07;;;;;;;2.20;0.50;;;;;;;20.59;100.00;100176.05;104983;1255;60479;-50
2023/08/10 06:58:36;;;;;;;0.80;0.50;;;;;;;20.64;100.00;100183.65;108128;1254;60645;-51
2023/08/10 07:01:06;;;;;;;5.00;0.50;;;;;;;20.71;100.00;100186.46;104836;1259;73855;-48
2023/08/10 07:03:35;;;;;;;1.90;0.80;;;;;;;20.79;100.00;100187.84;109014;1254;65922;-50
2023/08/10 07:06:02;;;;;;;2.10;0.50;;;;;;;20.87;100.00;100192.24;109150;1254;71407;-52
2023/08/10 07:08:30;;;;;;;1.60;0.40;;;;;;;20.96;100.00;100189.15;109051;1255;60038;-52
2023/08/10 07:11:02;;;;;;;0.60;0.50;;;;;;;21.03;100.00;100194.70;109044;1254;60005;-51
2023/08/10 07:13:29;;;;;;;1.50;0.50;;;;;;;21.07;100.00;100196.34;105387;1254;74725;-49
2023/08/10 07:15:57;;;;;;;1.50;0.40;;;;;;;21.13;100.00;100197.30;104946;1258;66818;-49
2023/08/10 07:18:24;;;;;;;2.50;0.50;;;;;;;21.21;100.00;100202.14;104730;1258;72131;-50
2023/08/10 07:20:52;;;;;;;0.50;0.40;;;;;;;21.31;100.00;100204.09;104972;1260;60479;-48
2023/08/10 07:23:20;;;;;;;1.80;0.40;;;;;;;21.38;100.00;100207.60;104952;1258;62107;-50
2023/08/10 07:25:47;;;;;;;0.60;0.30;;;;;;;21.45;100.00;100209.55;104689;1254;75622;-48
2023/08/10 07:28:15;;;;;;;0.90;0.40;;;;;;;21.53;100.00;100208.91;104748;1255;66329;-50
2023/08/10 07:30:45;;;;;;;5.60;0.40;;;;;;;21.59;100.00;100210.14;104802;1260;71487;-49
2023/08/10 07:33:12;;;;;;;0.40;0.30;;;;;;;21.67;100.00;100220.06;105005;1254;60565;-49
2023/08/10 07:35:39;;;;;;;2.40;0.40;;;;;;;21.74;100.00;100215.79;104661;1257;60469;-49
2023/08/10 07:38:07;;;;;;;0.70;0.30;;;;;;;21.81;100.00;100212.98;104958;1257;72756;-49
2023/08/10 07:40:34;;;;;;;0.40;0.40;;;;;;;21.89;100.00;100218.84;104948;1259;66099;-49
2023/08/10 07:43:02;;;;;;;0.60;0.40;;;;;;;21.98;100.00;100223.42;104848;1260;70419;-50
2023/08/10 07:45:29;;;;;;;1.80;0.30;;;;;;;22.05;100.00;100228.08;104940;1259;60551;-49
2023/08/10 07:47:56;;;;;;;0.70;0.40;;;;;;;22.10;100.00;100228.91;104908;1254;60633;-50
2023/08/10 07:50:25;;;;;;;0.90;0.40;;;;;;;22.13;100.00;100229.38;104834;1254;71949;-50
2023/08/10 07:52:53;;;;;;;0.60;0.40;;;;;;;22.15;100.00;100226.30;105036;1257;65671;-51
2023/08/10 07:55:20;;;;;;;1.50;0.50;;;;;;;22.16;100.00;100228.17;105041;1254;72689;-48
2023/08/10 07:57:48;;;;;;;1.00;0.40;;;;;;;22.21;100.00;100230.32;104873;1255;60546;-51
2023/08/10 08:00:16;;;;;;;0.80;0.50;;;;;;;22.27;100.00;100231.20;104799;1254;60651;-50
2023/08/10 08:02:44;;;;;;;0.70;0.50;;;;;;;22.33;100.00;100228.48;104773;1262;77616;-49
2023/08/10 08:05:11;;;;;;;2.30;0.40;;;;;;;22.39;100.00;100231.48;104981;1260;65915;-50
2023/08/10 08:07:39;;;;;;;4.40;0.50;;;;;;;22.43;100.00;100228.52;104631;1254;73183;-50
2023/08/10 08:10:06;;;;;;;0.50;0.40;;;;;;;22.46;100.00;100227.47;104955;1257;60530;-51
2023/08/10 08:12:34;;;;;;;3.60;0.40;;;;;;;22.50;100.00;100229.99;105137;1259;60393;-52
2023/08/10 08:15:03;;;;;;;0.80;0.60;;;;;;;22.55;100.00;100224.33;104832;1260;73922;-50
2023/08/10 08:18:08;;;;;;;3.60;0.70;;;;;;;22.58;100.00;100223.10;105436;1259;71008;-52
2023/08/10 08:20:35;;;;;;;0.80;0.60;;;;;;;22.60;100.00;100220.89;104826;1260;72673;-50
2023/08/10 08:23:03;;;;;;;0.90;0.40;;;;;;;22.62;100.00;100213.23;104942;1258;60577;-48
2023/08/10 08:25:30;;;;;;;1.30;0.50;;;;;;;22.68;100.00;100212.33;104961;1254;60316;-50
2023/08/10 08:27:58;;;;;;;0.50;0.40;;;;;;;22.76;100.00;100217.26;104961;1254;72885;-50
2023/08/10 08:30:27;;;;;;;0.40;0.30;;;;;;;22.85;100.00;100219.60;104707;1255;66681;-51
2023/08/10 08:32:55;;;;;;;0.80;0.30;;;;;;;22.89;100.00;100221.42;105069;1254;71463;-52
2023/08/10 08:35:24;;;;;;;1.50;0.40;;;;;;;22.90;100.00;100224.23;104726;1257;60386;-51
2023/08/10 08:37:52;;;;;;;0.60;0.40;;;;;;;22.93;100.00;100226.48;104603;1254;60457;-51
2023/08/10 08:40:20;;;;;;;1.00;0.40;;;;;;;22.98;100.00;100224.95;104772;1260;74864;-51
2023/08/10 08:42:48;;;;;;;0.80;0.50;;;;;;;23.03;100.00;100224.88;104893;1254;67271;-51
2023/08/10 08:45:16;;;;;;;0.40;0.30;;;;;;;23.08;100.00;100225.45;104820;1254;72826;-51
2023/08/10 08:47:44;;;;;;;0.50;0.40;;;;;;;23.13;100.00;100221.23;104910;1255;60523;-51
2023/08/10 08:50:11;;;;;;;0.50;0.30;;;;;;;23.08;100.00;100221.42;105586;1259;60542;-51
2023/08/10 08:52:39;;;;;;;0.50;0.30;;;;;;;23.01;100.00;100221.19;104818;1254;74257;-51
2023/08/10 08:55:07;;;;;;;1.80;0.30;;;;;;;22.95;100.00;100215.33;105901;1259;65132;-52
2023/08/10 08:57:35;;;;;;;2.00;0.40;;;;;;;22.97;100.00;100214.22;104821;1257;73143;-51
2023/08/10 09:00:03;;;;;;;0.80;0.40;;;;;;;23.04;100.00;100214.30;104794;1255;60453;-50
2023/08/10 09:02:30;;;;;;;1.60;0.40;;;;;;;23.13;100.00;100209.97;104607;1253;60438;-50
2023/08/10 09:05:01;;;;;;;1.40;0.60;;;;;;;23.24;100.00;100209.14;106119;1254;73972;-50
2023/08/10 09:07:29;;;;;;;0.90;0.40;;;;;;;23.33;100.00;100209.90;104699;1257;66748;-51
2023/08/10 09:09:56;;;;;;;1.00;0.40;;;;;;;23.40;100.00;100212.34;104698;1259;72425;-50
2023/08/10 09:12:34;;;;;;;0.50;0.40;;;;;;;23.44;100.00;100207.64;104788;1254;60565;-50
2023/08/10 09:15:07;;;;;;;0.40;0.40;;;;;;;23.49;100.00;100207.91;104794;1254;60530;-50
2023/08/10 09:17:37;;;;;;;0.80;0.30;;;;;;;23.55;100.00;100209.11;104849;1259;74319;-50
2023/08/10 09:20:08;;;;;;;1.20;0.30;;;;;;;23.63;100.00;100212.79;105316;1254;68374;-50
2023/08/10 09:22:38;;;;;;;0.40;0.40;;;;;;;23.71;100.00;100208.86;104758;1262;72664;-50
2023/08/10 09:25:06;;;;;;;0.30;0.30;;;;;;;23.80;100.00;100208.02;105797;1259;60527;-49
2023/08/10 09:27:34;;;;;;;1.80;0.40;;;;;;;23.88;100.00;100209.14;105392;1258;60409;-51
2023/08/10 09:30:03;;;;;;;0.60;0.30;;;;;;;23.91;100.00;100208.41;104705;1254;72584;-50
2023/08/10 09:32:31;;;;;;;0.30;0.30;;;;;;;23.91;100.00;100210.04;104880;1254;67416;-49
2023/08/10 09:34:59;;;;;;;1.40;0.40;;;;;;;23.84;100.00;100208.73;104854;1254;73095;-50
2023/08/10 09:37:26;;;;;;;0.60;0.30;;;;;;;23.82;100.00;100211.50;104901;1255;60648;-51
2023/08/10 09:39:55;;;;;;;0.70;0.50;;;;;;;23.82;100.00;100209.10;104894;1254;60512;-49
2023/08/10 09:42:29;;;;;;;0.30;0.30;;;;;;;23.81;100.00;100204.11;104739;1259;72563;-50
2023/08/10 09:44:57;;;;;;;;;;;;;;;23.82;100.00;100203.27;105024;1254;66906;-51
2023/08/10 09:49:17;;;;;;;0.90;0.40;;;;;;;23.92;100.00;100223.21;101855;1291;601591;-50
2023/08/10 09:51:44;;;;;;;0.50;0.30;;;;;;;23.94;100.00;100233.45;103996;1267;59344;-50
2023/08/10 09:54:11;;;;;;;1.50;0.30;;;;;;;24.03;100.00;100226.86;104104;1272;59867;-52
2023/08/10 09:56:39;;;;;;;0.60;0.30;;;;;;;24.13;100.00;100218.33;103751;1266;72255;-50
2023/08/10 09:59:06;;;;;;;1.00;0.30;;;;;;;24.21;100.00;100217.11;104168;1272;67641;-50
2023/08/10 10:01:33;;;;;;;0.50;0.40;;;;;;;24.21;100.00;100215.11;103981;1274;73140;-51
2023/08/10 10:04:01;;;;;;;0.60;0.40;;;;;;;24.16;100.00;100213.55;104160;1270;185741;-51
2023/08/10 10:06:28;;;;;;;0.30;0.20;;;;;;;24.10;100.00;100207.67;109003;1254;60091;-53
2023/08/10 10:08:56;;;;;;;0.50;0.40;;;;;;;24.04;100.00;100200.18;108945;1254;72847;-51
2023/08/10 10:11:23;;;;;;;1.80;0.40;;;;;;;24.02;100.00;100198.38;109152;1253;67168;-51
2023/08/10 10:13:50;;;;;;;0.60;0.40;;;;;;;23.99;100.00;100193.18;108757;1254;71412;-50
2023/08/10 10:16:18;;;;;;;0.60;0.40;;;;;;;23.91;100.00;100190.66;104936;1259;59856;-51
2023/08/10 10:18:45;;;;;;;0.50;0.50;;;;;;;23.89;100.00;100184.08;104844;1254;60007;-49
2023/08/10 10:21:13;;;;;;;0.50;0.30;;;;;;;23.93;100.00;100179.08;104948;1260;73122;-51
2023/08/10 10:23:40;;;;;;;0.80;0.40;;;;;;;23.98;100.00;100181.56;104897;1260;66489;-49
2023/08/10 10:26:08;;;;;;;2.80;0.70;;;;;;;23.99;100.00;100175.76;105068;1259;71421;-50
2023/08/10 10:28:35;;;;;;;1.80;0.30;;;;;;;24.01;100.00;100180.88;105050;1254;59678;-51
2023/08/10 10:31:10;;;;;;;4.50;1.00;;;;;;;24.01;100.00;100175.34;104778;1258;60140;-48
2023/08/10 10:33:56;;;;;;;0.40;0.30;;;;;;;24.00;100.00;100171.23;104577;1256;71366;-51
2023/08/10 10:36:23;;;;;;;0.30;0.30;;;;;;;24.01;100.00;100170.94;104480;1262;66854;-51
2023/08/10 10:39:07;;;;;;;0.40;0.30;;;;;;;24.04;100.00;100161.91;105001;1259;70592;-50
2023/08/10 10:41:37;;;;;;;0.30;0.30;;;;;;;24.07;100.00;100152.95;105523;1254;60570;-50
2023/08/10 10:44:05;;;;;;;4.30;0.30;;;;;;;24.11;100.00;100144.86;104727;1259;61017;-50
2023/08/10 10:46:32;;;;;;;3.20;0.40;;;;;;;24.10;100.00;100144.98;104940;1261;71756;-51
2023/08/10 10:49:14;;;;;;;2.60;0.40;;;;;;;24.10;100.00;100140.92;105443;1257;66739;-49
2023/08/10 10:51:53;;;;;;;0.70;0.30;;;;;;;24.11;100.00;100140.41;106613;1257;74443;-52
2023/08/10 10:54:21;;;;;;;0.60;0.40;;;;;;;24.11;100.00;100137.02;105576;1258;60075;-51
2023/08/10 10:56:48;;;;;;;0.40;0.30;;;;;;;24.05;100.00;100129.46;104838;1258;62372;-49
2023/08/10 10:59:16;;;;;;;0.30;0.30;;;;;;;24.05;100.00;100128.43;105081;1258;71804;-50
2023/08/10 11:01:48;;;;;;;0.50;0.30;;;;;;;24.12;100.00;100127.38;104944;1267;67414;-51
2023/08/10 11:04:15;;;;;;;0.60;0.50;;;;;;;24.20;100.00;100126.78;105001;1257;72650;-50
2023/08/10 11:06:43;;;;;;;0.40;0.30;;;;;;;24.25;100.00;100117.64;104897;1258;60729;-52
2023/08/10 11:09:10;;;;;;;0.40;0.30;;;;;;;24.24;100.00;100109.87;104810;1259;59758;-49
2023/08/10 11:11:46;;;;;;;0.40;0.30;;;;;;;24.25;100.00;100107.39;104958;1257;73529;-51
2023/08/10 11:14:14;;;;;;;0.30;0.30;;;;;;;24.26;100.00;100105.47;104956;1255;67609;-49
2023/08/10 11:16:44;;;;;;;2.30;0.30;;;;;;;24.26;100.00;100097.54;104725;1259;70959;-50
2023/08/10 11:19:15;;;;;;;1.30;0.30;;;;;;;24.26;100.00;100093.54;104644;1254;60077;-52